sensor_id;sensor_type;location;lat;lon;timestamp;temperature;humidity
18281;DHT22;9266;51.132;17.062;2023-04-24T00:01:13;13.00;99.90
18281;DHT22;9266;51.132;17.062;2023-04-24T00:03:40;13.10;94.40
18281;DHT22;9266;51.132;17.062;2023-04-24T00:06:07;13.20;1.00
18281;DHT22;9266;51.132;17.062;2023-04-24T00:08:34;13.20;1.00
18281;DHT22;9266;51.132;17.062;2023-04-24T00:11:01;13.20;1.00
18281;DHT22;9266;51.132;17.062;2023-04-24T00:13:28;13.20;1.00
18281;DHT22;9266;51.132;17.062;2023-04-24T00:15:56;13.20;1.00
18281;DHT22;9266;51.132;17.062;2023-04-24T00:18:24;13.20;1.00
18281;DHT22;9266;51.132;17.062;2023-04-24T00:20:51;13.20;1.00
18281;DHT22;9266;51.132;17.062;2023-04-24T00:23:18;13.20;1.00
18281;DHT22;9266;51.132;17.062;2023-04-24T00:25:45;13.20;1.00
18281;DHT22;9266;51.132;17.062;2023-04-24T00:28:12;13.20;1.00
18281;DHT22;9266;51.132;17.062;2023-04-24T00:30:40;13.20;1.00
18281;DHT22;9266;51.132;17.062;2023-04-24T00:33:07;13.20;1.00
18281;DHT22;9266;51.132;17.062;2023-04-24T00:35:36;13.20;22.60
18281;DHT22;9266;51.132;17.062;2023-04-24T00:38:03;13.10;45.90
18281;DHT22;9266;51.132;17.062;2023-04-24T00:40:30;13.10;99.90
18281;DHT22;9266;51.132;17.062;2023-04-24T00:42:57;13.10;99.90
18281;DHT22;9266;51.132;17.062;2023-04-24T00:45:24;13.20;99.90
18281;DHT22;9266;51.132;17.062;2023-04-24T00:47:52;13.10;99.90
18281;DHT22;9266;51.132;17.062;2023-04-24T00:50:21;13.00;1.00
18281;DHT22;9266;51.132;17.062;2023-04-24T00:52:49;12.90;1.00
18281;DHT22;9266;51.132;17.062;2023-04-24T00:55:16;12.90;1.00
18281;DHT22;9266;51.132;17.062;2023-04-24T00:57:44;12.90;1.00
18281;DHT22;9266;51.132;17.062;2023-04-24T01:00:12;12.90;1.00
18281;DHT22;9266;51.132;17.062;2023-04-24T01:02:41;12.90;1.00
18281;DHT22;9266;51.132;17.062;2023-04-24T01:05:11;12.90;1.00
18281;DHT22;9266;51.132;17.062;2023-04-24T01:07:39;12.90;10.50
18281;DHT22;9266;51.132;17.062;2023-04-24T01:10:11;12.80;24.00
18281;DHT22;9266;51.132;17.062;2023-04-24T01:12:39;12.80;99.90
18281;DHT22;9266;51.132;17.062;2023-04-24T01:15:08;12.80;99.90
18281;DHT22;9266;51.132;17.062;2023-04-24T01:17:35;12.70;99.90
18281;DHT22;9266;51.132;17.062;2023-04-24T01:20:04;12.70;99.90
18281;DHT22;9266;51.132;17.062;2023-04-24T01:22:34;12.70;99.90
18281;DHT22;9266;51.132;17.062;2023-04-24T01:25:01;12.70;99.90
18281;DHT22;9266;51.132;17.062;2023-04-24T01:27:28;12.60;99.90
18281;DHT22;9266;51.132;17.062;2023-04-24T01:29:55;12.50;99.90
18281;DHT22;9266;51.132;17.062;2023-04-24T01:32:22;12.50;99.90
18281;DHT22;9266;51.132;17.062;2023-04-24T01:34:50;12.50;99.90
18281;DHT22;9266;51.132;17.062;2023-04-24T01:37:18;12.60;99.90
18281;DHT22;9266;51.132;17.062;2023-04-24T01:39:46;12.60;99.90
18281;DHT22;9266;51.132;17.062;2023-04-24T01:42:13;12.50;99.90
18281;DHT22;9266;51.132;17.062;2023-04-24T01:44:41;12.60;99.90
18281;DHT22;9266;51.132;17.062;2023-04-24T01:47:08;12.60;99.90
18281;DHT22;9266;51.132;17.062;2023-04-24T01:49:36;12.60;99.90
18281;DHT22;9266;51.132;17.062;2023-04-24T01:52:04;12.60;99.90
18281;DHT22;9266;51.132;17.062;2023-04-24T01:54:31;12.50;99.90
18281;DHT22;9266;51.132;17.062;2023-04-24T01:56:59;12.50;99.90
18281;DHT22;9266;51.132;17.062;2023-04-24T01:59:28;12.50;99.90
18281;DHT22;9266;51.132;17.062;2023-04-24T02:01:55;12.50;99.90
18281;DHT22;9266;51.132;17.062;2023-04-24T02:04:22;12.50;99.90
18281;DHT22;9266;51.132;17.062;2023-04-24T02:06:49;12.50;99.90
18281;DHT22;9266;51.132;17.062;2023-04-24T02:09:16;12.50;99.90
18281;DHT22;9266;51.132;17.062;2023-04-24T02:11:43;12.60;99.90
18281;DHT22;9266;51.132;17.062;2023-04-24T02:14:12;12.60;99.90
18281;DHT22;9266;51.132;17.062;2023-04-24T02:16:39;12.60;99.90
18281;DHT22;9266;51.132;17.062;2023-04-24T02:19:06;12.60;99.90
18281;DHT22;9266;51.132;17.062;2023-04-24T02:21:33;12.60;99.90
18281;DHT22;9266;51.132;17.062;2023-04-24T02:24:00;12.60;99.90
18281;DHT22;9266;51.132;17.062;2023-04-24T02:26:27;12.60;1.00
18281;DHT22;9266;51.132;17.062;2023-04-24T02:28:54;12.50;1.00
18281;DHT22;9266;51.132;17.062;2023-04-24T02:31:23;12.50;1.00
18281;DHT22;9266;51.132;17.062;2023-04-24T02:33:50;12.30;1.00
18281;DHT22;9266;51.132;17.062;2023-04-24T02:36:17;12.30;1.00
18281;DHT22;9266;51.132;17.062;2023-04-24T02:38:44;12.30;1.00
18281;DHT22;9266;51.132;17.062;2023-04-24T02:41:11;12.20;1.00
18281;DHT22;9266;51.132;17.062;2023-04-24T02:43:38;12.10;15.60
18281;DHT22;9266;51.132;17.062;2023-04-24T02:46:05;12.10;99.90
18281;DHT22;9266;51.132;17.062;2023-04-24T02:48:33;12.10;99.90
18281;DHT22;9266;51.132;17.062;2023-04-24T02:51:00;12.10;99.90
18281;DHT22;9266;51.132;17.062;2023-04-24T02:53:27;12.10;99.90
18281;DHT22;9266;51.132;17.062;2023-04-24T02:55:55;12.00;99.90
18281;DHT22;9266;51.132;17.062;2023-04-24T02:58:22;12.00;99.90
18281;DHT22;9266;51.132;17.062;2023-04-24T03:00:53;12.10;99.90
18281;DHT22;9266;51.132;17.062;2023-04-24T03:03:21;12.00;99.90
18281;DHT22;9266;51.132;17.062;2023-04-24T03:05:51;12.00;99.90
18281;DHT22;9266;51.132;17.062;2023-04-24T03:08:18;11.90;99.90
18281;DHT22;9266;51.132;17.062;2023-04-24T03:10:45;11.80;99.90
18281;DHT22;9266;51.132;17.062;2023-04-24T03:13:12;11.80;99.90
18281;DHT22;9266;51.132;17.062;2023-04-24T03:15:39;11.90;99.90
18281;DHT22;9266;51.132;17.062;2023-04-24T03:18:06;11.80;99.90
18281;DHT22;9266;51.132;17.062;2023-04-24T03:20:33;11.80;99.90
18281;DHT22;9266;51.132;17.062;2023-04-24T03:23:03;11.80;99.90
18281;DHT22;9266;51.132;17.062;2023-04-24T03:25:31;11.90;99.90
18281;DHT22;9266;51.132;17.062;2023-04-24T03:27:58;12.00;99.90
18281;DHT22;9266;51.132;17.062;2023-04-24T03:30:25;12.00;99.90
18281;DHT22;9266;51.132;17.062;2023-04-24T03:32:53;12.00;99.90
18281;DHT22;9266;51.132;17.062;2023-04-24T03:35:20;11.90;99.90
18281;DHT22;9266;51.132;17.062;2023-04-24T03:37:47;11.90;99.90
18281;DHT22;9266;51.132;17.062;2023-04-24T03:40:16;12.50;99.90
18281;DHT22;9266;51.132;17.062;2023-04-24T03:42:43;11.90;99.90
18281;DHT22;9266;51.132;17.062;2023-04-24T03:45:10;11.90;99.90
18281;DHT22;9266;51.132;17.062;2023-04-24T03:47:37;11.90;99.90
18281;DHT22;9266;51.132;17.062;2023-04-24T03:50:05;11.90;99.90
18281;DHT22;9266;51.132;17.062;2023-04-24T03:52:32;11.90;99.90
18281;DHT22;9266;51.132;17.062;2023-04-24T03:54:59;11.90;99.90
18281;DHT22;9266;51.132;17.062;2023-04-24T03:57:28;11.90;99.90
18281;DHT22;9266;51.132;17.062;2023-04-24T03:59:55;11.90;99.90
18281;DHT22;9266;51.132;17.062;2023-04-24T04:02:22;11.20;99.90
18281;DHT22;9266;51.132;17.062;2023-04-24T04:04:49;11.80;99.90
18281;DHT22;9266;51.132;17.062;2023-04-24T04:07:16;11.80;99.90
18281;DHT22;9266;51.132;17.062;2023-04-24T04:09:43;11.80;99.90
18281;DHT22;9266;51.132;17.062;2023-04-24T04:12:10;11.80;99.90
18281;DHT22;9266;51.132;17.062;2023-04-24T04:14:39;11.80;99.90
18281;DHT22;9266;51.132;17.062;2023-04-24T04:17:06;11.70;99.90
18281;DHT22;9266;51.132;17.062;2023-04-24T04:19:33;11.70;99.90
18281;DHT22;9266;51.132;17.062;2023-04-24T04:22:00;11.80;99.90
18281;DHT22;9266;51.132;17.062;2023-04-24T04:24:27;11.70;99.90
18281;DHT22;9266;51.132;17.062;2023-04-24T04:26:54;11.70;99.90
18281;DHT22;9266;51.132;17.062;2023-04-24T04:29:22;11.70;99.90
18281;DHT22;9266;51.132;17.062;2023-04-24T04:31:50;11.60;99.90
18281;DHT22;9266;51.132;17.062;2023-04-24T04:34:17;11.80;99.90
18281;DHT22;9266;51.132;17.062;2023-04-24T04:36:45;12.10;99.90
18281;DHT22;9266;51.132;17.062;2023-04-24T04:39:12;12.50;99.90
18281;DHT22;9266;51.132;17.062;2023-04-24T04:41:40;13.00;99.90
18281;DHT22;9266;51.132;17.062;2023-04-24T04:44:07;13.40;99.90
18281;DHT22;9266;51.132;17.062;2023-04-24T04:46:35;14.10;99.90
18281;DHT22;9266;51.132;17.062;2023-04-24T04:49:05;14.80;99.90
18281;DHT22;9266;51.132;17.062;2023-04-24T04:51:34;15.40;24.10
18281;DHT22;9266;51.132;17.062;2023-04-24T04:54:01;15.60;99.90
18281;DHT22;9266;51.132;17.062;2023-04-24T04:56:28;15.60;99.90
18281;DHT22;9266;51.132;17.062;2023-04-24T04:58:55;15.50;1.00
18281;DHT22;9266;51.132;17.062;2023-04-24T05:01:22;15.60;78.60
18281;DHT22;9266;51.132;17.062;2023-04-24T05:03:50;15.50;99.90
18281;DHT22;9266;51.132;17.062;2023-04-24T05:06:18;15.30;1.00
18281;DHT22;9266;51.132;17.062;2023-04-24T05:08:45;15.60;99.90
18281;DHT22;9266;51.132;17.062;2023-04-24T05:11:12;16.40;1.00
18281;DHT22;9266;51.132;17.062;2023-04-24T05:13:39;17.20;99.90
18281;DHT22;9266;51.132;17.062;2023-04-24T05:16:06;17.60;1.00
18281;DHT22;9266;51.132;17.062;2023-04-24T05:18:33;17.70;1.00
18281;DHT22;9266;51.132;17.062;2023-04-24T05:21:00;17.90;1.00
18281;DHT22;9266;51.132;17.062;2023-04-24T05:23:28;17.70;1.00
18281;DHT22;9266;51.132;17.062;2023-04-24T05:25:56;17.70;1.00
18281;DHT22;9266;51.132;17.062;2023-04-24T05:28:23;17.80;99.90
18281;DHT22;9266;51.132;17.062;2023-04-24T05:30:53;17.80;99.90
18281;DHT22;9266;51.132;17.062;2023-04-24T05:33:20;17.90;1.00
18281;DHT22;9266;51.132;17.062;2023-04-24T05:35:47;17.50;29.20
18281;DHT22;9266;51.132;17.062;2023-04-24T05:38:14;16.80;1.00
18281;DHT22;9266;51.132;17.062;2023-04-24T05:40:44;16.40;99.90
18281;DHT22;9266;51.132;17.062;2023-04-24T05:43:12;16.10;1.00
18281;DHT22;9266;51.132;17.062;2023-04-24T05:45:39;16.10;99.90
18281;DHT22;9266;51.132;17.062;2023-04-24T05:48:06;16.10;1.00
18281;DHT22;9266;51.132;17.062;2023-04-24T05:50:33;16.00;1.00
18281;DHT22;9266;51.132;17.062;2023-04-24T05:53:00;16.00;99.90
18281;DHT22;9266;51.132;17.062;2023-04-24T05:58:51;16.30;1.00
18281;DHT22;9266;51.132;17.062;2023-04-24T06:01:18;16.20;1.00
18281;DHT22;9266;51.132;17.062;2023-04-24T06:03:45;16.40;1.00
18281;DHT22;9266;51.132;17.062;2023-04-24T06:06:12;16.40;93.40
18281;DHT22;9266;51.132;17.062;2023-04-24T06:08:39;16.40;1.00
18281;DHT22;9266;51.132;17.062;2023-04-24T06:11:08;16.40;1.00
18281;DHT22;9266;51.132;17.062;2023-04-24T06:13:34;16.30;1.00
18281;DHT22;9266;51.132;17.062;2023-04-24T06:16:03;16.30;1.00
18281;DHT22;9266;51.132;17.062;2023-04-24T06:18:30;16.20;1.00
18281;DHT22;9266;51.132;17.062;2023-04-24T06:20:57;16.30;1.00
18281;DHT22;9266;51.132;17.062;2023-04-24T06:23:24;16.50;1.00
18281;DHT22;9266;51.132;17.062;2023-04-24T06:25:51;16.80;1.00
18281;DHT22;9266;51.132;17.062;2023-04-24T06:28:18;16.80;1.00
18281;DHT22;9266;51.132;17.062;2023-04-24T06:30:45;16.70;1.00
18281;DHT22;9266;51.132;17.062;2023-04-24T06:33:14;16.70;1.00
18281;DHT22;9266;51.132;17.062;2023-04-24T06:35:41;16.70;1.00
18281;DHT22;9266;51.132;17.062;2023-04-24T06:38:08;16.50;1.00
18281;DHT22;9266;51.132;17.062;2023-04-24T06:40:34;16.40;1.00
18281;DHT22;9266;51.132;17.062;2023-04-24T06:43:01;16.40;1.00
18281;DHT22;9266;51.132;17.062;2023-04-24T06:45:28;16.30;1.00
18281;DHT22;9266;51.132;17.062;2023-04-24T06:47:56;16.30;1.00
18281;DHT22;9266;51.132;17.062;2023-04-24T06:50:24;16.30;1.00
18281;DHT22;9266;51.132;17.062;2023-04-24T06:52:51;16.40;1.00
18281;DHT22;9266;51.132;17.062;2023-04-24T06:55:18;16.40;1.00
18281;DHT22;9266;51.132;17.062;2023-04-24T06:57:45;16.30;1.00
18281;DHT22;9266;51.132;17.062;2023-04-24T07:00:13;16.30;1.00
18281;DHT22;9266;51.132;17.062;2023-04-24T07:02:41;16.40;1.00
18281;DHT22;9266;51.132;17.062;2023-04-24T07:05:08;16.50;1.00
18281;DHT22;9266;51.132;17.062;2023-04-24T07:07:36;16.60;1.00
18281;DHT22;9266;51.132;17.062;2023-04-24T07:10:06;16.80;1.00
18281;DHT22;9266;51.132;17.062;2023-04-24T07:12:34;16.90;99.90
18281;DHT22;9266;51.132;17.062;2023-04-24T07:15:01;17.00;99.90
18281;DHT22;9266;51.132;17.062;2023-04-24T07:17:28;17.10;99.90
18281;DHT22;9266;51.132;17.062;2023-04-24T07:19:55;17.40;99.90
18281;DHT22;9266;51.132;17.062;2023-04-24T07:22:22;17.50;99.90
18281;DHT22;9266;51.132;17.062;2023-04-24T07:24:51;17.60;99.90
18281;DHT22;9266;51.132;17.062;2023-04-24T07:27:18;17.80;99.90
18281;DHT22;9266;51.132;17.062;2023-04-24T07:29:45;17.70;99.90
18281;DHT22;9266;51.132;17.062;2023-04-24T07:32:12;17.70;99.90
18281;DHT22;9266;51.132;17.062;2023-04-24T07:34:39;17.60;99.90
18281;DHT22;9266;51.132;17.062;2023-04-24T07:37:06;17.60;99.90
18281;DHT22;9266;51.132;17.062;2023-04-24T07:39:33;17.80;99.90
18281;DHT22;9266;51.132;17.062;2023-04-24T07:42:01;18.20;99.90
18281;DHT22;9266;51.132;17.062;2023-04-24T07:44:29;18.60;99.90
18281;DHT22;9266;51.132;17.062;2023-04-24T07:46:56;18.90;99.90
18281;DHT22;9266;51.132;17.062;2023-04-24T07:49:23;18.80;99.90
18281;DHT22;9266;51.132;17.062;2023-04-24T07:51:50;19.30;99.90
18281;DHT22;9266;51.132;17.062;2023-04-24T07:54:17;19.40;99.90
18281;DHT22;9266;51.132;17.062;2023-04-24T07:56:44;19.40;99.90
18281;DHT22;9266;51.132;17.062;2023-04-24T07:59:12;19.60;99.90
18281;DHT22;9266;51.132;17.062;2023-04-24T08:01:39;19.40;21.00
18281;DHT22;9266;51.132;17.062;2023-04-24T08:04:07;19.20;74.80
18281;DHT22;9266;51.132;17.062;2023-04-24T08:06:34;19.10;68.10
18281;DHT22;9266;51.132;17.062;2023-04-24T08:09:01;18.90;50.40
18281;DHT22;9266;51.132;17.062;2023-04-24T08:11:28;18.70;24.50
18281;DHT22;9266;51.132;17.062;2023-04-24T08:13:55;18.10;99.90
18281;DHT22;9266;51.132;17.062;2023-04-24T08:16:23;18.20;49.30
18281;DHT22;9266;51.132;17.062;2023-04-24T08:18:50;18.00;64.80
18281;DHT22;9266;51.132;17.062;2023-04-24T08:21:17;17.50;99.90
18281;DHT22;9266;51.132;17.062;2023-04-24T08:23:44;17.30;99.90
18281;DHT22;9266;51.132;17.062;2023-04-24T08:26:12;17.30;99.90
18281;DHT22;9266;51.132;17.062;2023-04-24T08:28:39;17.20;99.90
18281;DHT22;9266;51.132;17.062;2023-04-24T08:31:06;17.10;99.90
18281;DHT22;9266;51.132;17.062;2023-04-24T08:33:35;17.10;99.90
18281;DHT22;9266;51.132;17.062;2023-04-24T08:36:02;17.10;99.90
18281;DHT22;9266;51.132;17.062;2023-04-24T08:38:29;17.00;99.90
18281;DHT22;9266;51.132;17.062;2023-04-24T08:40:57;16.70;99.90
18281;DHT22;9266;51.132;17.062;2023-04-24T08:43:25;16.50;1.00
18281;DHT22;9266;51.132;17.062;2023-04-24T08:45:52;16.50;1.00
18281;DHT22;9266;51.132;17.062;2023-04-24T08:48:22;16.60;1.00
18281;DHT22;9266;51.132;17.062;2023-04-24T08:50:51;16.80;1.00
18281;DHT22;9266;51.132;17.062;2023-04-24T08:53:18;16.80;99.90
18281;DHT22;9266;51.132;17.062;2023-04-24T08:55:47;16.80;1.00
18281;DHT22;9266;51.132;17.062;2023-04-24T08:58:16;17.60;99.90
18281;DHT22;9266;51.132;17.062;2023-04-24T09:00:43;18.70;1.00
18281;DHT22;9266;51.132;17.062;2023-04-24T09:03:13;19.40;1.00
18281;DHT22;9266;51.132;17.062;2023-04-24T09:05:41;19.70;1.00
18281;DHT22;9266;51.132;17.062;2023-04-24T09:08:13;20.30;1.00
18281;DHT22;9266;51.132;17.062;2023-04-24T09:10:41;20.00;1.00
18281;DHT22;9266;51.132;17.062;2023-04-24T09:13:08;19.90;1.00
18281;DHT22;9266;51.132;17.062;2023-04-24T09:15:36;19.60;99.90
18281;DHT22;9266;51.132;17.062;2023-04-24T09:18:03;19.60;1.00
18281;DHT22;9266;51.132;17.062;2023-04-24T09:20:31;19.40;99.90
18281;DHT22;9266;51.132;17.062;2023-04-24T09:22:58;19.40;99.90
18281;DHT22;9266;51.132;17.062;2023-04-24T09:25:31;19.10;99.90
18281;DHT22;9266;51.132;17.062;2023-04-24T09:28:01;19.60;1.00
18281;DHT22;9266;51.132;17.062;2023-04-24T09:30:28;20.00;99.90
18281;DHT22;9266;51.132;17.062;2023-04-24T09:33:11;19.40;99.90
18281;DHT22;9266;51.132;17.062;2023-04-24T09:35:41;19.70;99.90
18281;DHT22;9266;51.132;17.062;2023-04-24T09:38:09;19.60;99.90
18281;DHT22;9266;51.132;17.062;2023-04-24T09:40:37;20.00;99.90
18281;DHT22;9266;51.132;17.062;2023-04-24T09:43:10;20.30;99.90
18281;DHT22;9266;51.132;17.062;2023-04-24T09:45:38;20.70;99.90
18281;DHT22;9266;51.132;17.062;2023-04-24T09:48:09;20.50;99.90
18281;DHT22;9266;51.132;17.062;2023-04-24T09:50:36;20.60;99.90
18281;DHT22;9266;51.132;17.062;2023-04-24T09:53:04;20.30;7.20
18281;DHT22;9266;51.132;17.062;2023-04-24T09:55:42;19.90;57.90
18281;DHT22;9266;51.132;17.062;2023-04-24T09:58:11;19.60;8.20
18281;DHT22;9266;51.132;17.062;2023-04-24T10:00:40;19.20;99.90
18281;DHT22;9266;51.132;17.062;2023-04-24T10:03:07;19.60;99.90
18281;DHT22;9266;51.132;17.062;2023-04-24T10:05:36;20.10;99.90
18281;DHT22;9266;51.132;17.062;2023-04-24T10:08:05;20.00;24.60
18281;DHT22;9266;51.132;17.062;2023-04-24T10:10:34;19.80;34.70
18281;DHT22;9266;51.132;17.062;2023-04-24T10:13:05;19.90;99.90
18281;DHT22;9266;51.132;17.062;2023-04-24T10:15:34;19.60;99.90
18281;DHT22;9266;51.132;17.062;2023-04-24T10:18:02;19.80;99.90
18281;DHT22;9266;51.132;17.062;2023-04-24T10:20:33;19.70;57.90
18281;DHT22;9266;51.132;17.062;2023-04-24T10:23:00;20.10;99.90
18281;DHT22;9266;51.132;17.062;2023-04-24T10:25:29;19.90;65.70
18281;DHT22;9266;51.132;17.062;2023-04-24T10:27:58;19.80;65.70
18281;DHT22;9266;51.132;17.062;2023-04-24T10:30:28;19.70;69.60
18281;DHT22;9266;51.132;17.062;2023-04-24T10:32:56;19.70;25.90
18281;DHT22;9266;51.132;17.062;2023-04-24T10:35:23;19.30;9.20
18281;DHT22;9266;51.132;17.062;2023-04-24T10:37:56;19.00;99.90
18281;DHT22;9266;51.132;17.062;2023-04-24T10:40:27;19.20;97.50
18281;DHT22;9266;51.132;17.062;2023-04-24T10:42:55;19.50;99.90
18281;DHT22;9266;51.132;17.062;2023-04-24T10:45:24;20.30;94.40
18281;DHT22;9266;51.132;17.062;2023-04-24T10:47:53;20.80;28.60
18281;DHT22;9266;51.132;17.062;2023-04-24T10:50:23;20.60;92.00
18281;DHT22;9266;51.132;17.062;2023-04-24T10:52:50;20.50;27.90
18281;DHT22;9266;51.132;17.062;2023-04-24T10:55:44;20.90;1.00
18281;DHT22;9266;51.132;17.062;2023-04-24T10:58:11;19.80;1.00
18281;DHT22;9266;51.132;17.062;2023-04-24T11:00:41;20.60;1.00
18281;DHT22;9266;51.132;17.062;2023-04-24T11:03:26;20.10;1.00
18281;DHT22;9266;51.132;17.062;2023-04-24T11:05:57;19.80;1.00
18281;DHT22;9266;51.132;17.062;2023-04-24T11:08:26;19.50;1.00
18281;DHT22;9266;51.132;17.062;2023-04-24T11:11:02;19.20;1.00
18281;DHT22;9266;51.132;17.062;2023-04-24T11:14:02;18.70;1.00
18281;DHT22;9266;51.132;17.062;2023-04-24T11:16:31;18.80;1.00
18281;DHT22;9266;51.132;17.062;2023-04-24T11:19:05;18.80;1.00
18281;DHT22;9266;51.132;17.062;2023-04-24T11:21:39;19.00;1.00
18281;DHT22;9266;51.132;17.062;2023-04-24T11:24:27;19.00;1.00
18281;DHT22;9266;51.132;17.062;2023-04-24T11:26:56;19.40;1.00
18281;DHT22;9266;51.132;17.062;2023-04-24T11:29:38;19.70;1.00
18281;DHT22;9266;51.132;17.062;2023-04-24T11:32:18;19.80;1.00
18281;DHT22;9266;51.132;17.062;2023-04-24T11:34:48;20.10;1.00
18281;DHT22;9266;51.132;17.062;2023-04-24T11:37:15;19.80;1.00
18281;DHT22;9266;51.132;17.062;2023-04-24T11:39:42;19.90;1.00
18281;DHT22;9266;51.132;17.062;2023-04-24T11:42:10;20.30;1.00
18281;DHT22;9266;51.132;17.062;2023-04-24T11:44:37;20.50;1.00
18281;DHT22;9266;51.132;17.062;2023-04-24T11:47:05;20.50;1.00
18281;DHT22;9266;51.132;17.062;2023-04-24T11:49:32;20.70;1.00
18281;DHT22;9266;51.132;17.062;2023-04-24T11:52:01;20.90;1.00
18281;DHT22;9266;51.132;17.062;2023-04-24T11:54:28;21.00;1.00
18281;DHT22;9266;51.132;17.062;2023-04-24T11:56:56;20.80;1.00
18281;DHT22;9266;51.132;17.062;2023-04-24T11:59:23;20.40;1.00
18281;DHT22;9266;51.132;17.062;2023-04-24T12:01:50;20.60;1.00
18281;DHT22;9266;51.132;17.062;2023-04-24T12:04:17;20.50;1.00
18281;DHT22;9266;51.132;17.062;2023-04-24T12:07:01;20.30;1.00
18281;DHT22;9266;51.132;17.062;2023-04-24T12:09:29;20.20;1.00
18281;DHT22;9266;51.132;17.062;2023-04-24T12:12:06;19.80;1.00
18281;DHT22;9266;51.132;17.062;2023-04-24T12:14:41;19.30;1.00
18281;DHT22;9266;51.132;17.062;2023-04-24T12:17:08;19.40;1.00
18281;DHT22;9266;51.132;17.062;2023-04-24T12:19:35;19.50;1.00
18281;DHT22;9266;51.132;17.062;2023-04-24T12:22:05;20.40;1.00
18281;DHT22;9266;51.132;17.062;2023-04-24T12:24:32;19.30;1.00
18281;DHT22;9266;51.132;17.062;2023-04-24T12:26:59;19.30;1.00
18281;DHT22;9266;51.132;17.062;2023-04-24T12:29:27;19.10;1.00
18281;DHT22;9266;51.132;17.062;2023-04-24T12:31:54;18.90;1.00
18281;DHT22;9266;51.132;17.062;2023-04-24T12:34:23;18.80;1.00
18281;DHT22;9266;51.132;17.062;2023-04-24T12:36:50;18.70;1.00
18281;DHT22;9266;51.132;17.062;2023-04-24T12:39:19;18.20;1.00
18281;DHT22;9266;51.132;17.062;2023-04-24T12:41:55;18.00;1.00
18281;DHT22;9266;51.132;17.062;2023-04-24T12:44:29;18.10;1.00
18281;DHT22;9266;51.132;17.062;2023-04-24T12:46:58;17.90;1.00
18281;DHT22;9266;51.132;17.062;2023-04-24T12:49:25;17.70;1.00
18281;DHT22;9266;51.132;17.062;2023-04-24T12:51:52;17.40;1.00
18281;DHT22;9266;51.132;17.062;2023-04-24T12:54:21;17.20;1.00
18281;DHT22;9266;51.132;17.062;2023-04-24T12:56:48;17.30;1.00
18281;DHT22;9266;51.132;17.062;2023-04-24T12:59:15;17.30;1.00
18281;DHT22;9266;51.132;17.062;2023-04-24T13:01:42;17.30;1.00
18281;DHT22;9266;51.132;17.062;2023-04-24T13:04:09;17.40;1.00
18281;DHT22;9266;51.132;17.062;2023-04-24T13:06:37;17.10;99.90
18281;DHT22;9266;51.132;17.062;2023-04-24T13:09:04;16.80;99.90
18281;DHT22;9266;51.132;17.062;2023-04-24T13:11:32;17.10;99.90
18281;DHT22;9266;51.132;17.062;2023-04-24T13:13:59;16.50;1.00
18281;DHT22;9266;51.132;17.062;2023-04-24T13:16:26;16.40;1.00
18281;DHT22;9266;51.132;17.062;2023-04-24T13:18:53;16.40;9.60
18281;DHT22;9266;51.132;17.062;2023-04-24T13:21:20;16.30;1.00
18281;DHT22;9266;51.132;17.062;2023-04-24T13:23:47;16.00;41.60
18281;DHT22;9266;51.132;17.062;2023-04-24T13:26:15;16.10;1.00
18281;DHT22;9266;51.132;17.062;2023-04-24T13:28:43;16.20;1.00
18281;DHT22;9266;51.132;17.062;2023-04-24T13:31:10;16.20;99.90
18281;DHT22;9266;51.132;17.062;2023-04-24T13:33:37;16.00;1.00
18281;DHT22;9266;51.132;17.062;2023-04-24T13:36:05;15.90;1.00
18281;DHT22;9266;51.132;17.062;2023-04-24T13:38:32;15.80;1.00
18281;DHT22;9266;51.132;17.062;2023-04-24T13:40:59;15.60;99.90
18281;DHT22;9266;51.132;17.062;2023-04-24T13:43:26;15.50;99.90
18281;DHT22;9266;51.132;17.062;2023-04-24T13:45:55;15.30;99.90
18281;DHT22;9266;51.132;17.062;2023-04-24T13:48:22;15.30;99.90
18281;DHT22;9266;51.132;17.062;2023-04-24T13:50:49;15.10;1.00
18281;DHT22;9266;51.132;17.062;2023-04-24T13:53:16;15.00;1.00
18281;DHT22;9266;51.132;17.062;2023-04-24T13:55:43;14.80;1.00
18281;DHT22;9266;51.132;17.062;2023-04-24T13:58:10;14.70;1.00
18281;DHT22;9266;51.132;17.062;2023-04-24T14:00:37;14.70;1.00
18281;DHT22;9266;51.132;17.062;2023-04-24T14:03:05;14.80;1.00
18281;DHT22;9266;51.132;17.062;2023-04-24T14:05:32;15.00;1.00
18281;DHT22;9266;51.132;17.062;2023-04-24T14:07:59;15.00;1.00
18281;DHT22;9266;51.132;17.062;2023-04-24T14:10:26;15.10;99.90
18281;DHT22;9266;51.132;17.062;2023-04-24T14:12:53;15.00;99.90
18281;DHT22;9266;51.132;17.062;2023-04-24T14:15:21;15.00;99.90
18281;DHT22;9266;51.132;17.062;2023-04-24T14:17:48;15.00;99.90
18281;DHT22;9266;51.132;17.062;2023-04-24T14:20:16;15.10;99.90
18281;DHT22;9266;51.132;17.062;2023-04-24T14:22:43;15.10;99.90
18281;DHT22;9266;51.132;17.062;2023-04-24T14:25:10;15.10;99.90
18281;DHT22;9266;51.132;17.062;2023-04-24T14:27:37;15.10;99.90
18281;DHT22;9266;51.132;17.062;2023-04-24T14:30:06;15.10;99.90
18281;DHT22;9266;51.132;17.062;2023-04-24T14:32:34;15.00;99.90
18281;DHT22;9266;51.132;17.062;2023-04-24T14:35:01;15.80;1.00
18281;DHT22;9266;51.132;17.062;2023-04-24T14:37:30;14.90;1.00
18281;DHT22;9266;51.132;17.062;2023-04-24T14:39:57;14.90;1.00
18281;DHT22;9266;51.132;17.062;2023-04-24T14:42:24;14.90;1.00
18281;DHT22;9266;51.132;17.062;2023-04-24T14:44:51;14.90;1.00
18281;DHT22;9266;51.132;17.062;2023-04-24T14:47:18;14.90;1.00
18281;DHT22;9266;51.132;17.062;2023-04-24T14:49:47;14.90;1.00
18281;DHT22;9266;51.132;17.062;2023-04-24T14:52:14;14.90;1.00
18281;DHT22;9266;51.132;17.062;2023-04-24T14:54:43;14.80;1.00
18281;DHT22;9266;51.132;17.062;2023-04-24T14:57:10;14.60;1.00
18281;DHT22;9266;51.132;17.062;2023-04-24T14:59:37;14.60;1.00
18281;DHT22;9266;51.132;17.062;2023-04-24T15:02:06;14.70;1.00
18281;DHT22;9266;51.132;17.062;2023-04-24T15:04:33;14.70;17.30
18281;DHT22;9266;51.132;17.062;2023-04-24T15:07:00;14.60;99.90
18281;DHT22;9266;51.132;17.062;2023-04-24T15:09:27;14.40;1.00
18281;DHT22;9266;51.132;17.062;2023-04-24T15:11:56;14.20;99.90
18281;DHT22;9266;51.132;17.062;2023-04-24T15:14:23;14.10;82.10
18281;DHT22;9266;51.132;17.062;2023-04-24T15:16:50;14.00;12.50
18281;DHT22;9266;51.132;17.062;2023-04-24T15:19:17;13.90;1.00
18281;DHT22;9266;51.132;17.062;2023-04-24T15:21:44;13.80;1.00
18281;DHT22;9266;51.132;17.062;2023-04-24T15:24:11;13.70;1.00
18281;DHT22;9266;51.132;17.062;2023-04-24T15:26:38;13.60;1.00
18281;DHT22;9266;51.132;17.062;2023-04-24T15:29:06;13.50;99.90
18281;DHT22;9266;51.132;17.062;2023-04-24T15:31:33;13.40;55.30
18281;DHT22;9266;51.132;17.062;2023-04-24T15:34:05;13.30;1.00
18281;DHT22;9266;51.132;17.062;2023-04-24T15:36:32;13.20;1.00
18281;DHT22;9266;51.132;17.062;2023-04-24T15:39:00;13.20;13.80
18281;DHT22;9266;51.132;17.062;2023-04-24T15:41:27;13.10;99.90
18281;DHT22;9266;51.132;17.062;2023-04-24T15:43:54;13.00;99.90
18281;DHT22;9266;51.132;17.062;2023-04-24T15:46:23;13.10;1.00